Time;durP1;ratioP1;P1;durP2;ratioP2;P2;SDS_P1;SDS_P2;PMS_P1;PMS_P2;Temp;Humidity;BMP_temperature;BMP_pressure;BME280_temperature;BME280_humidity;BME280_pressure;Samples;Min_cycle;Max_cycle;Signal;HPM_P1;HPM_P2
2022/11/09 00:01:02;;;;;;;3.78;1.17;;;;;;;11.94;93.69;100292.72;2062968;28;33628;-69
2022/11/09 00:02:04;;;;;;;2.80;0.93;;;;;;;11.93;94.30;100293.63;2063046;28;37935;-70
2022/11/09 00:03:06;;;;;;;3.92;1.30;;;;;;;11.94;94.24;100289.16;2062649;28;20908;-69
2022/11/09 00:04:09;;;;;;;2.42;0.88;;;;;;;11.89;94.47;100283.06;2054101;28;40634;-69
2022/11/09 00:05:11;;;;;;;5.72;1.40;;;;;;;11.91;94.22;100284.78;2061728;28;27303;-69
2022/11/09 00:06:15;;;;;;;5.13;0.90;;;;;;;11.87;94.07;100290.31;2062764;28;34126;-69
2022/11/09 00:07:17;;;;;;;2.15;0.85;;;;;;;11.90;94.32;100284.78;2061991;28;38290;-69
2022/11/09 00:08:18;;;;;;;2.35;1.10;;;;;;;11.88;94.43;100292.03;2062114;28;39641;-69
2022/11/09 00:09:21;;;;;;;2.88;0.98;;;;;;;11.81;94.71;100286.06;2062908;28;33456;-69
2022/11/09 00:10:23;;;;;;;4.55;1.08;;;;;;;11.80;94.79;100286.97;2062990;28;32160;-69
2022/11/09 00:11:27;;;;;;;4.18;1.10;;;;;;;11.80;95.42;100284.28;2063642;28;20042;-69
2022/11/09 00:12:29;;;;;;;2.13;1.00;;;;;;;11.76;95.63;100275.50;2062864;28;37771;-69
2022/11/09 00:13:34;;;;;;;3.00;1.08;;;;;;;11.74;94.83;100274.69;2062728;28;35501;-69
2022/11/09 00:14:37;;;;;;;3.17;0.93;;;;;;;11.77;95.30;100279.03;2063251;28;30568;-69
2022/11/09 00:15:39;;;;;;;4.40;0.95;;;;;;;11.81;95.06;100276.19;2063239;28;33891;-69
2022/11/09 00:16:40;;;;;;;5.75;0.90;;;;;;;11.81;95.14;100281.56;2063121;28;37324;-69
2022/11/09 00:17:42;;;;;;;2.70;1.00;;;;;;;11.81;95.82;100281.56;2063054;28;30592;-69
2022/11/09 00:18:47;;;;;;;3.13;0.93;;;;;;;11.82;95.14;100285.97;2062971;28;39419;-69
2022/11/09 00:19:51;;;;;;;2.70;1.10;;;;;;;11.85;95.02;100277.81;2063270;28;20046;-69
2022/11/09 00:20:53;;;;;;;2.45;0.82;;;;;;;11.80;95.48;100278.94;2062289;28;28860;-69
2022/11/09 00:21:55;;;;;;;5.57;0.95;;;;;;;11.77;96.01;100282.63;2062884;28;29724;-69
2022/11/09 00:22:57;;;;;;;2.25;1.00;;;;;;;11.78;95.64;100280.78;2063464;28;20050;-69
2022/11/09 00:23:59;;;;;;;3.60;1.15;;;;;;;11.74;95.50;100274.69;2062941;28;32191;-69
2022/11/09 00:25:01;;;;;;;6.00;1.08;;;;;;;11.77;95.49;100282.63;2062822;28;32948;-69
2022/11/09 00:26:10;;;;;;;3.55;1.00;;;;;;;11.76;96.20;100286.22;2062598;28;32962;-69
2022/11/09 00:27:11;;;;;;;3.13;0.95;;;;;;;11.80;95.86;100282.47;2062830;28;36999;-69
2022/11/09 00:28:18;;;;;;;6.03;1.17;;;;;;;11.76;95.87;100272.81;2063236;28;22164;-69
2022/11/09 00:29:21;;;;;;;4.25;1.30;;;;;;;11.78;95.46;100272.75;2063365;28;20027;-70
2022/11/09 00:30:22;;;;;;;3.17;1.30;;;;;;;11.82;96.32;100275.25;2063356;28;20827;-68
2022/11/09 00:31:24;;;;;;;3.50;0.98;;;;;;;11.83;96.47;100278.81;2063428;28;21609;-69
2022/11/09 00:32:26;;;;;;;3.92;0.90;;;;;;;11.81;96.29;100278.88;2063298;28;21290;-70
2022/11/09 00:33:29;;;;;;;3.05;1.05;;;;;;;11.81;95.81;100272.63;2063428;28;20043;-69
2022/11/09 00:34:30;;;;;;;2.08;0.90;;;;;;;11.80;95.98;100282.47;2063165;28;27601;-69
2022/11/09 00:35:32;;;;;;;3.75;1.00;;;;;;;11.76;96.53;100271.94;2062446;28;34422;-67
2022/11/09 00:36:36;;;;;;;3.03;1.00;;;;;;;11.79;96.59;100270.00;2063428;28;20165;-69
2022/11/09 00:37:42;;;;;;;1.77;0.98;;;;;;;11.78;96.22;100270.06;2062787;28;20995;-69
2022/11/09 00:38:50;;;;;;;2.38;0.95;;;;;;;11.77;96.26;100269.22;2054772;28;20078;-69
2022/11/09 00:39:52;;;;;;;4.05;1.20;;;;;;;11.76;96.30;100267.44;2062412;28;21560;-69
2022/11/09 00:40:59;;;;;;;4.22;1.15;;;;;;;11.79;96.31;100259.28;2063227;28;27325;-69
2022/11/09 00:42:01;;;;;;;3.30;1.00;;;;;;;11.74;96.46;100258.59;2070176;28;27498;-69
2022/11/09 00:43:03;;;;;;;6.18;1.08;;;;;;;11.74;96.65;100263.09;2070693;28;20034;-69
2022/11/09 00:44:05;;;;;;;3.78;1.33;;;;;;;11.71;96.42;100257.84;2070917;28;20299;-69
2022/11/09 00:45:07;;;;;;;3.58;0.90;;;;;;;11.73;97.02;100261.31;2063238;28;30402;-69
2022/11/09 00:46:09;;;;;;;6.50;1.08;;;;;;;11.78;97.50;100252.16;2070120;28;31758;-69
2022/11/09 00:47:13;;;;;;;3.63;1.13;;;;;;;11.80;96.92;100257.47;2070057;28;20986;-69
2022/11/09 00:48:16;;;;;;;2.17;1.00;;;;;;;11.84;97.13;100262.66;2069753;28;20046;-69
2022/11/09 00:49:17;;;;;;;3.67;0.90;;;;;;;11.78;96.67;100259.34;2054470;28;33480;-69
2022/11/09 00:50:21;;;;;;;2.63;1.33;;;;;;;11.77;96.52;100258.47;2062524;28;20101;-68
2022/11/09 00:51:24;;;;;;;4.47;0.95;;;;;;;11.80;96.89;100266.38;2062186;28;20043;-69
2022/11/09 00:52:26;;;;;;;4.03;1.10;;;;;;;11.79;96.57;100261.97;2062246;28;21229;-69
2022/11/09 00:53:29;;;;;;;4.03;0.88;;;;;;;11.83;96.23;100252.00;2062774;28;20054;-69
2022/11/09 00:54:31;;;;;;;2.72;0.98;;;;;;;11.84;96.90;100251.94;2061855;28;33194;-68
2022/11/09 00:55:34;;;;;;;2.67;0.82;;;;;;;11.83;96.99;100258.22;2058305;28;20039;-69
2022/11/09 00:56:36;;;;;;;3.33;0.70;;;;;;;11.87;96.79;100258.13;2062499;28;20136;-69
2022/11/09 00:57:38;;;;;;;4.85;1.17;;;;;;;11.93;96.07;100255.22;2054162;28;25043;-69
2022/11/09 00:58:40;;;;;;;4.15;1.10;;;;;;;11.92;96.56;100258.84;2062446;28;20165;-69
2022/11/09 00:59:42;;;;;;;3.25;1.23;;;;;;;11.92;96.14;100262.38;2070328;28;27413;-69
2022/11/09 01:00:43;;;;;;;5.50;1.15;;;;;;;11.84;96.40;100261.78;2063120;28;20042;-69
2022/11/09 01:01:45;;;;;;;3.03;1.00;;;;;;;11.85;96.92;100261.72;2046324;28;33848;-69
2022/11/09 01:02:49;;;;;;;4.38;1.10;;;;;;;11.83;96.58;100263.59;2054485;28;24162;-69
2022/11/09 01:03:52;;;;;;;3.30;1.20;;;;;;;11.81;97.35;100264.59;2062779;28;21047;-70
2022/11/09 01:04:54;;;;;;;2.15;0.68;;;;;;;11.83;97.18;100268.94;2054688;28;32336;-69
2022/11/09 01:05:58;;;;;;;4.57;0.80;;;;;;;11.83;97.29;100265.41;2054574;28;20051;-69
2022/11/09 01:07:00;;;;;;;2.30;0.82;;;;;;;11.81;97.29;100260.09;2062783;28;20044;-68
2022/11/09 01:08:02;;;;;;;3.47;0.90;;;;;;;11.82;97.07;100269.88;2063078;28;28661;-69
2022/11/09 01:09:04;;;;;;;5.50;1.23;;;;;;;11.88;96.86;100270.56;2062875;28;20924;-69
2022/11/09 01:10:07;;;;;;;3.70;0.80;;;;;;;11.93;96.64;100271.31;2062264;28;20041;-69
2022/11/09 01:11:10;;;;;;;3.17;0.73;;;;;;;11.85;96.93;100272.44;2054648;28;20039;-69
2022/11/09 01:12:12;;;;;;;2.10;0.73;;;;;;;11.82;96.31;100271.69;2054463;28;31082;-69
2022/11/09 01:13:16;;;;;;;3.10;0.95;;;;;;;11.79;97.24;100272.69;2061787;28;29918;-69
2022/11/09 01:14:18;;;;;;;2.95;1.08;;;;;;;11.84;97.19;100278.75;2070657;28;20970;-69
2022/11/09 01:15:23;;;;;;;2.72;0.82;;;;;;;11.87;96.94;100274.22;2062425;28;20043;-69
2022/11/09 01:16:25;;;;;;;3.60;0.90;;;;;;;11.82;96.54;100272.56;2063305;28;28060;-69
2022/11/09 01:17:26;;;;;;;4.60;1.13;;;;;;;11.88;97.37;100270.56;2064609;28;20051;-69
2022/11/09 01:18:29;;;;;;;4.88;0.95;;;;;;;11.89;97.00;100266.97;2064704;28;20034;-69
2022/11/09 01:19:30;;;;;;;5.47;1.00;;;;;;;11.88;96.83;100265.22;2063907;28;31468;-69
2022/11/09 01:20:32;;;;;;;2.50;1.00;;;;;;;11.80;97.14;100269.06;2063813;28;20042;-69
2022/11/09 01:21:34;;;;;;;3.72;0.85;;;;;;;11.77;97.51;100269.22;2063318;28;23055;-69
2022/11/09 01:22:35;;;;;;;4.70;1.27;;;;;;;11.73;97.46;100262.19;2064193;28;21322;-69
2022/11/09 01:23:38;;;;;;;3.22;1.00;;;;;;;11.69;97.32;100265.94;2063287;28;26753;-69
2022/11/09 01:24:40;;;;;;;3.28;1.05;;;;;;;11.71;98.40;100266.75;2072216;28;21755;-69
2022/11/09 01:25:43;;;;;;;2.75;1.02;;;;;;;11.75;97.76;100267.50;2070945;28;28818;-69
2022/11/09 01:26:44;;;;;;;4.40;0.95;;;;;;;11.75;97.72;100264.81;2064211;28;36521;-69
2022/11/09 01:27:46;;;;;;;3.50;1.05;;;;;;;11.77;97.61;100268.31;2064538;28;20035;-69
2022/11/09 01:28:48;;;;;;;1.48;0.82;;;;;;;11.77;97.63;100265.63;2072369;28;20100;-69
2022/11/09 01:29:50;;;;;;;4.13;1.10;;;;;;;11.77;97.55;100269.22;2071540;28;24787;-69
2022/11/09 01:30:52;;;;;;;3.63;0.70;;;;;;;11.73;97.26;100272.91;2071900;28;20319;-69
2022/11/09 01:31:55;;;;;;;1.50;0.73;;;;;;;11.72;97.93;100268.50;2063877;28;32452;-69
2022/11/09 01:32:56;;;;;;;5.57;1.02;;;;;;;11.70;97.65;100273.06;2063833;28;20051;-69
2022/11/09 01:34:01;;;;;;;1.77;0.85;;;;;;;11.71;97.81;100269.41;2055978;28;20146;-69
2022/11/09 01:35:07;;;;;;;5.10;1.00;;;;;;;11.68;98.36;100266.84;2056689;28;21133;-70
2022/11/09 01:36:20;;;;;;;3.15;0.88;;;;;;;11.72;97.86;100270.28;2063407;28;20134;-69
2022/11/09 01:37:22;;;;;;;3.90;0.80;;;;;;;11.77;97.95;100266.53;2070752;28;20086;-69
2022/11/09 01:38:24;;;;;;;4.07;1.10;;;;;;;11.76;98.14;100267.44;2071357;28;32624;-69
2022/11/09 01:39:26;;;;;;;3.30;1.17;;;;;;;11.79;97.69;100266.44;2071491;28;31268;-69
2022/11/09 01:40:29;;;;;;;3.47;1.00;;;;;;;11.72;97.99;100265.81;2064320;28;20046;-69
2022/11/09 01:41:31;;;;;;;3.90;1.20;;;;;;;11.78;98.29;100272.75;2064649;28;20050;-69
2022/11/09 01:42:38;;;;;;;4.25;1.08;;;;;;;11.78;97.82;100262.88;2063565;28;20047;-69
2022/11/09 01:43:40;;;;;;;5.60;1.00;;;;;;;11.79;97.24;100277.16;2063644;28;30936;-69
2022/11/09 01:44:41;;;;;;;5.05;0.95;;;;;;;11.75;97.34;100279.09;2064155;28;34660;-69
2022/11/09 01:45:54;;;;;;;5.90;1.20;;;;;;;11.71;97.64;100269.41;2063814;28;28481;-69
2022/11/09 01:47:06;;;;;;;3.70;1.00;;;;;;;11.69;98.05;100270.44;2063700;28;20043;-69
2022/11/09 01:48:17;;;;;;;6.05;1.00;;;;;;;11.71;97.89;100266.75;2063585;28;25338;-69
2022/11/09 01:49:32;;;;;;;5.70;0.85;;;;;;;11.64;98.37;100267.91;2071758;28;26987;-69
2022/11/09 01:50:47;;;;;;;2.67;0.75;;;;;;;11.61;98.52;100263.56;2063727;28;20867;-69
2022/11/09 01:52:01;;;;;;;3.80;0.82;;;;;;;11.69;98.78;100273.97;2058662;28;28105;-69
2022/11/09 01:53:11;;;;;;;3.42;1.10;;;;;;;11.69;98.31;100268.63;2057716;28;20868;-67
2022/11/09 01:54:21;;;;;;;4.20;1.08;;;;;;;11.62;99.13;100269.78;2049994;28;24857;-70
2022/11/09 01:55:26;;;;;;;4.13;0.85;;;;;;;11.70;99.31;100267.69;2056754;28;24403;-70
2022/11/09 01:56:32;;;;;;;1.77;0.80;;;;;;;11.69;98.31;100267.75;2055752;28;20043;-69
2022/11/09 01:57:41;;;;;;;5.15;0.90;;;;;;;11.72;98.79;100270.28;2040642;28;20820;-69
2022/11/09 01:58:51;;;;;;;4.18;1.15;;;;;;;11.74;98.56;100265.75;2058654;28;20050;-70
2022/11/09 02:00:08;;;;;;;4.78;1.08;;;;;;;11.87;97.88;100264.34;2063697;28;20051;-71
2022/11/09 02:01:17;;;;;;;2.08;1.00;;;;;;;11.84;97.84;100264.44;2056670;28;20086;-69
2022/11/09 02:02:19;;;;;;;7.95;1.52;;;;;;;11.88;98.00;100267.88;2050056;28;20091;-70
2022/11/09 02:03:31;;;;;;;2.33;0.88;;;;;;;11.83;97.49;100263.59;2055727;28;20043;-67
2022/11/09 02:04:40;;;;;;;2.15;0.88;;;;;;;11.91;97.93;100257.94;2057198;28;20044;-69
2022/11/09 02:05:44;;;;;;;5.13;0.95;;;;;;;11.84;98.30;100257.31;2048369;28;20542;-69
2022/11/09 02:06:49;;;;;;;3.03;0.90;;;;;;;11.80;98.32;100252.97;2057092;28;20189;-69
2022/11/09 02:07:54;;;;;;;3.20;0.95;;;;;;;11.78;98.32;100252.16;2063785;28;20153;-70
2022/11/09 02:09:42;;;;;;;2.30;0.93;;;;;;;11.80;98.53;100252.97;2063838;28;20035;-69
2022/11/09 02:11:07;;;;;;;4.57;1.38;;;;;;;11.88;98.10;100257.16;2051057;28;20053;-69
2022/11/09 02:12:10;;;;;;;2.83;1.00;;;;;;;11.90;98.08;100252.59;2058645;28;20167;-70
2022/11/09 02:13:16;;;;;;;7.10;1.30;;;;;;;11.85;98.49;100250.97;2058038;28;20047;-69
2022/11/09 02:14:22;;;;;;;5.05;1.17;;;;;;;11.87;98.22;100244.69;2056137;28;24380;-69
2022/11/09 02:15:25;;;;;;;2.70;0.77;;;;;;;11.88;98.65;100251.78;2056957;28;20039;-69
2022/11/09 02:16:28;;;;;;;2.38;0.90;;;;;;;11.95;98.34;100253.34;2064340;28;20166;-69
2022/11/09 02:17:33;;;;;;;3.13;1.05;;;;;;;11.91;98.09;100244.53;2064308;28;20873;-69
2022/11/09 02:18:50;;;;;;;3.58;0.80;;;;;;;11.93;98.92;100247.16;2063535;28;20042;-69
2022/11/09 02:19:52;;;;;;;2.88;0.90;;;;;;;11.96;98.09;100250.59;2063020;28;20130;-70
2022/11/09 02:20:56;;;;;;;3.40;1.20;;;;;;;12.00;97.53;100246.84;2063155;28;21040;-69
2022/11/09 02:22:01;;;;;;;5.30;0.80;;;;;;;11.97;98.50;100243.41;2071619;28;20053;-68
2022/11/09 02:23:05;;;;;;;3.25;0.90;;;;;;;12.01;97.61;100245.06;2071914;28;20046;-69
2022/11/09 02:24:07;;;;;;;2.75;0.65;;;;;;;12.10;97.63;100249.19;2063429;28;20070;-69
2022/11/09 02:25:11;;;;;;;4.72;1.00;;;;;;;12.11;97.04;100243.72;2063407;28;20054;-69
2022/11/09 02:26:22;;;;;;;3.53;0.98;;;;;;;12.18;97.11;100250.59;2070857;28;20168;-68
2022/11/09 02:27:24;;;;;;;3.53;1.02;;;;;;;12.16;97.46;100246.25;2064475;28;20049;-68
2022/11/09 02:28:27;;;;;;;2.50;1.00;;;;;;;12.15;96.90;100252.53;2054685;28;20051;-68
2022/11/09 02:29:37;;;;;;;3.92;1.17;;;;;;;12.23;96.71;100251.28;2055948;28;20050;-69
2022/11/09 02:30:47;;;;;;;2.83;1.17;;;;;;;12.28;96.69;100247.56;2063491;28;20043;-68
2022/11/09 02:31:56;;;;;;;2.67;1.05;;;;;;;12.34;96.35;100247.28;2064381;28;20125;-68
2022/11/09 02:32:57;;;;;;;3.72;1.13;;;;;;;12.35;96.32;100254.41;2069907;28;20050;-68
2022/11/09 02:34:07;;;;;;;2.90;0.90;;;;;;;12.38;95.91;100254.28;2064114;28;20185;-68
2022/11/09 02:35:09;;;;;;;2.95;1.02;;;;;;;12.36;95.92;100253.47;2070254;28;21544;-68
2022/11/09 02:36:11;;;;;;;3.15;1.00;;;;;;;12.37;95.39;100250.72;2063260;28;20916;-68
2022/11/09 02:37:25;;;;;;;4.32;0.80;;;;;;;12.40;95.52;100258.66;2063776;28;20057;-68
2022/11/09 02:38:27;;;;;;;3.30;0.73;;;;;;;12.52;95.30;100257.25;2063297;28;20920;-68
2022/11/09 02:39:29;;;;;;;3.67;1.00;;;;;;;12.54;94.72;100250.03;2063265;28;20035;-69
2022/11/09 02:40:37;;;;;;;4.03;0.75;;;;;;;12.51;95.01;100258.22;2062709;28;21198;-67
2022/11/09 02:41:53;;;;;;;3.30;0.90;;;;;;;12.59;94.38;100242.63;2055519;28;20228;-68
2022/11/09 02:42:56;;;;;;;3.97;1.13;;;;;;;12.59;94.72;100250.69;2056674;28;39182;-69
2022/11/09 02:43:59;;;;;;;5.07;0.80;;;;;;;12.58;94.20;100251.66;2063402;28;20125;-69
2022/11/09 02:45:01;;;;;;;3.75;0.88;;;;;;;12.56;94.73;100248.16;2071357;28;21612;-69
2022/11/09 02:46:04;;;;;;;4.15;0.80;;;;;;;12.59;95.02;100250.69;2063134;28;20046;-69
2022/11/09 02:47:07;;;;;;;4.60;1.13;;;;;;;12.56;94.81;100245.47;2055553;28;20043;-69
2022/11/09 02:48:08;;;;;;;5.38;0.70;;;;;;;12.58;94.48;100240.91;2063306;28;20046;-69
2022/11/09 02:49:11;;;;;;;3.03;1.15;;;;;;;12.63;94.57;100247.88;2071179;28;21106;-69
2022/11/09 02:50:15;;;;;;;2.60;1.02;;;;;;;12.62;94.02;100249.69;2071567;28;20046;-69
2022/11/09 02:51:17;;;;;;;4.82;0.90;;;;;;;12.62;94.60;100246.16;2063298;28;27703;-69
2022/11/09 02:52:21;;;;;;;5.78;0.98;;;;;;;12.62;94.49;100240.78;2063854;28;20959;-69
2022/11/09 02:53:28;;;;;;;3.17;0.80;;;;;;;12.63;94.41;100248.75;2063130;28;20956;-69
2022/11/09 02:54:32;;;;;;;6.28;1.05;;;;;;;12.73;93.49;100242.06;2055772;28;20121;-69
2022/11/09 02:55:36;;;;;;;6.00;1.02;;;;;;;12.65;94.11;100241.53;2062610;28;21867;-69
2022/11/09 02:56:41;;;;;;;5.00;0.90;;;;;;;12.68;93.87;100237.81;2064092;28;20043;-69
2022/11/09 02:57:43;;;;;;;7.90;1.40;;;;;;;12.69;93.80;100227.00;2062710;28;20137;-69
2022/11/09 02:58:47;;;;;;;4.45;1.40;;;;;;;12.73;93.50;100231.31;2055931;28;20048;-68
2022/11/09 02:59:53;;;;;;;2.92;0.88;;;;;;;12.70;94.12;100230.56;2055027;28;20049;-69
2022/11/09 03:00:54;;;;;;;4.07;0.80;;;;;;;12.70;93.87;100226.06;2068928;28;20054;-69
2022/11/09 03:01:59;;;;;;;6.03;1.15;;;;;;;12.69;93.90;100228.84;2071062;28;20937;-69
2022/11/09 03:03:04;;;;;;;5.97;0.85;;;;;;;12.68;94.14;100219.88;2071822;28;20046;-68
2022/11/09 03:04:06;;;;;;;4.47;0.95;;;;;;;12.66;93.96;100223.59;2077804;28;20046;-68
2022/11/09 03:05:12;;;;;;;6.22;0.85;;;;;;;12.66;94.26;100218.22;2063408;28;20047;-69
2022/11/09 03:06:16;;;;;;;5.47;0.85;;;;;;;12.66;94.21;100220.91;2063187;28;20912;-69
2022/11/09 03:07:19;;;;;;;5.20;0.90;;;;;;;12.62;94.27;100224.66;2063384;28;20109;-69
2022/11/09 03:08:21;;;;;;;4.72;0.70;;;;;;;12.71;93.84;100218.88;2055034;28;20217;-68
2022/11/09 03:09:24;;;;;;;2.90;0.70;;;;;;;12.66;93.70;100220.91;2055234;28;20094;-69
2022/11/09 03:10:25;;;;;;;3.08;1.02;;;;;;;12.65;94.36;100224.50;2062884;28;20173;-69
2022/11/09 03:11:29;;;;;;;7.13;1.08;;;;;;;12.63;93.76;100223.72;2063010;28;20059;-69
2022/11/09 03:12:32;;;;;;;4.95;0.77;;;;;;;12.63;94.44;100221.03;2046474;28;20055;-69
2022/11/09 03:13:44;;;;;;;4.70;0.90;;;;;;;12.57;93.81;100222.16;2062768;28;20923;-69
2022/11/09 03:14:47;;;;;;;6.35;1.00;;;;;;;12.58;94.07;100227.47;2070996;28;20140;-69
2022/11/09 03:15:49;;;;;;;3.47;0.70;;;;;;;12.56;94.40;100225.78;2063010;28;20052;-69
2022/11/09 03:16:51;;;;;;;7.00;1.00;;;;;;;12.56;94.67;100228.47;2071246;28;20943;-68
2022/11/09 03:17:53;;;;;;;4.50;0.93;;;;;;;12.51;94.79;100228.69;2070310;28;20920;-69
2022/11/09 03:18:56;;;;;;;4.03;1.15;;;;;;;12.53;94.64;100232.16;2054736;28;20046;-67
2022/11/09 03:19:59;;;;;;;4.80;1.02;;;;;;;12.57;94.59;100238.28;2063721;28;20047;-69
2022/11/09 03:21:06;;;;;;;4.35;1.08;;;;;;;12.57;94.19;100241.81;2062828;28;20039;-68
2022/11/09 03:22:07;;;;;;;5.07;1.00;;;;;;;12.51;94.43;100242.09;2063419;28;29606;-69
2022/11/09 03:23:12;;;;;;;3.08;0.70;;;;;;;12.54;94.43;100243.75;2070446;28;28674;-68
2022/11/09 03:24:14;;;;;;;5.60;1.00;;;;;;;12.51;94.32;100244.78;2062657;28;20039;-69
2022/11/09 03:25:16;;;;;;;4.00;0.90;;;;;;;12.47;95.26;100245.88;2054981;28;20181;-69
2022/11/09 03:26:19;;;;;;;2.50;0.80;;;;;;;12.43;94.83;100246.91;2054811;28;20094;-69
2022/11/09 03:27:20;;;;;;;5.30;0.98;;;;;;;12.42;95.52;100245.19;2062868;28;25336;-69
2022/11/09 03:28:23;;;;;;;3.35;0.88;;;;;;;12.40;95.48;100247.06;2054854;28;20043;-69
2022/11/09 03:29:26;;;;;;;4.00;0.95;;;;;;;12.43;95.57;100251.41;2055001;28;20047;-69
2022/11/09 03:30:31;;;;;;;2.80;0.90;;;;;;;12.40;95.68;100241.69;2062979;28;20050;-69
2022/11/09 03:31:33;;;;;;;5.00;0.88;;;;;;;12.38;95.36;100256.97;2062601;28;20038;-69
2022/11/09 03:32:39;;;;;;;5.80;0.93;;;;;;;12.36;96.01;100248.09;2055110;28;21048;-68
2022/11/09 03:33:41;;;;;;;4.53;0.80;;;;;;;12.37;96.33;100257.91;2046766;28;21365;-69
2022/11/09 03:34:43;;;;;;;2.35;0.70;;;;;;;12.40;95.90;100257.78;2055239;28;20050;-69
2022/11/09 03:35:47;;;;;;;3.28;0.90;;;;;;;12.38;96.07;100246.22;2054869;28;20063;-69
2022/11/09 03:36:51;;;;;;;6.82;0.77;;;;;;;12.41;95.41;100251.47;2047561;28;20051;-69
2022/11/09 03:37:54;;;;;;;4.57;0.88;;;;;;;12.41;95.35;100254.16;2046881;28;20112;-68
2022/11/09 03:38:58;;;;;;;3.63;0.98;;;;;;;12.45;95.13;100260.28;2047091;28;20100;-69
2022/11/09 03:40:01;;;;;;;6.00;1.15;;;;;;;12.45;94.93;100261.13;2054655;28;20047;-68
2022/11/09 03:41:03;;;;;;;6.28;1.00;;;;;;;12.47;95.67;100258.38;2047383;28;20229;-69
2022/11/09 03:42:06;;;;;;;4.18;0.90;;;;;;;12.44;94.90;100259.41;2047567;28;20048;-68
2022/11/09 03:43:10;;;;;;;3.75;0.85;;;;;;;12.40;95.54;100258.66;2062844;28;20043;-69
2022/11/09 03:44:14;;;;;;;4.60;0.90;;;;;;;12.36;96.11;100262.41;2062918;28;20043;-69
2022/11/09 03:45:20;;;;;;;4.53;1.08;;;;;;;12.40;95.72;100255.13;2055919;28;20809;-68
2022/11/09 03:46:22;;;;;;;4.85;0.80;;;;;;;12.41;95.13;100259.53;2062276;28;38060;-69
2022/11/09 03:47:23;;;;;;;6.15;0.75;;;;;;;12.43;94.95;100254.09;2062674;28;20102;-68
2022/11/09 03:48:25;;;;;;;6.25;0.90;;;;;;;12.40;94.60;100263.16;2060974;28;28592;-69
2022/11/09 03:49:27;;;;;;;4.57;0.88;;;;;;;12.41;95.58;100260.38;2063285;28;24861;-69
2022/11/09 03:50:31;;;;;;;5.97;0.90;;;;;;;12.41;94.58;100263.06;2063357;28;26404;-68
2022/11/09 03:51:33;;;;;;;3.72;0.70;;;;;;;12.46;93.91;100252.16;2063108;28;26579;-69
2022/11/09 03:52:35;;;;;;;4.90;0.70;;;;;;;12.41;94.01;100264.88;2062538;28;37762;-69
2022/11/09 03:53:37;;;;;;;7.57;1.13;;;;;;;12.40;94.77;100257.78;2070357;28;30409;-69
2022/11/09 03:54:39;;;;;;;5.68;0.90;;;;;;;12.45;93.83;100261.13;2069835;28;33551;-69
2022/11/09 03:55:40;;;;;;;5.55;0.70;;;;;;;12.42;94.25;100269.34;2062749;28;32362;-69
2022/11/09 03:56:42;;;;;;;5.28;0.77;;;;;;;12.40;94.51;100268.53;2062449;28;35815;-69
2022/11/09 03:57:45;;;;;;;5.32;1.15;;;;;;;12.38;94.43;100268.59;2063369;28;24239;-69
2022/11/09 03:58:47;;;;;;;6.47;0.60;;;;;;;12.35;94.93;100267.84;2063299;28;20031;-69
2022/11/09 03:59:49;;;;;;;3.20;0.65;;;;;;;12.37;94.48;100271.34;2062827;28;31650;-69
2022/11/09 04:00:51;;;;;;;4.32;0.77;;;;;;;12.35;94.25;100273.22;2062345;28;35444;-69
2022/11/09 04:01:52;;;;;;;4.38;0.57;;;;;;;12.41;94.68;100278.31;2063555;28;20042;-69
2022/11/09 04:02:55;;;;;;;5.63;0.85;;;;;;;12.39;94.45;100281.06;2062871;28;35568;-69
2022/11/09 04:03:56;;;;;;;6.28;0.80;;;;;;;12.40;94.25;100274.78;2063612;28;20907;-69
2022/11/09 04:04:58;;;;;;;7.90;1.10;;;;;;;12.45;94.23;100279.94;2063469;28;20058;-69
2022/11/09 04:06:00;;;;;;;3.35;0.80;;;;;;;12.51;94.39;100274.31;2063151;28;33075;-69
2022/11/09 04:07:02;;;;;;;2.92;0.60;;;;;;;12.50;94.05;100275.25;2063719;28;20038;-69
2022/11/09 04:08:04;;;;;;;5.88;0.90;;;;;;;12.52;94.67;100262.63;2063159;28;21165;-68
2022/11/09 04:09:09;;;;;;;6.88;0.90;;;;;;;12.51;93.97;100266.25;2063527;28;20026;-69
2022/11/09 04:10:11;;;;;;;3.90;0.70;;;;;;;12.50;94.08;100259.13;2063227;28;20046;-68
2022/11/09 04:11:12;;;;;;;4.63;0.90;;;;;;;12.48;94.23;100255.66;2062386;28;28023;-68
2022/11/09 04:12:14;;;;;;;7.88;1.20;;;;;;;12.54;93.84;100250.03;2062857;28;29280;-69
2022/11/09 04:13:16;;;;;;;5.53;1.00;;;;;;;12.51;93.79;100255.53;2063214;28;27005;-69
2022/11/09 04:14:18;;;;;;;2.17;0.68;;;;;;;12.49;94.20;100259.19;2062938;28;30586;-69
2022/11/09 04:15:22;;;;;;;4.30;0.75;;;;;;;12.46;94.49;100257.53;2063071;28;20047;-69
2022/11/09 04:16:24;;;;;;;6.25;1.00;;;;;;;12.43;94.35;100260.31;2054411;28;20137;-69
2022/11/09 04:17:26;;;;;;;5.57;1.13;;;;;;;12.40;94.80;100268.53;2054407;28;33842;-68
2022/11/09 04:18:28;;;;;;;5.28;0.90;;;;;;;12.41;95.53;100272.94;2063426;28;25420;-69
2022/11/09 04:19:30;;;;;;;5.55;0.60;;;;;;;12.44;94.44;100275.50;2062562;28;32605;-69
2022/11/09 04:20:31;;;;;;;4.32;0.80;;;;;;;12.45;94.41;100255.75;2063591;28;20039;-69
2022/11/09 04:21:33;;;;;;;5.05;0.70;;;;;;;12.45;95.28;100258.44;2062699;28;32370;-68
2022/11/09 04:22:35;;;;;;;6.57;0.85;;;;;;;12.44;95.20;100262.09;2062305;28;23779;-69
2022/11/09 04:23:41;;;;;;;6.10;1.27;;;;;;;12.43;95.37;100268.38;2062721;28;20876;-68
2022/11/09 04:24:43;;;;;;;3.35;0.90;;;;;;;12.42;95.02;100272.03;2063331;28;30798;-68
2022/11/09 04:25:44;;;;;;;3.72;0.90;;;;;;;12.42;95.25;100261.28;2062902;28;20035;-69
2022/11/09 04:26:52;;;;;;;5.20;0.93;;;;;;;12.45;95.26;100271.00;2071456;28;20295;-69
2022/11/09 04:27:58;;;;;;;4.85;0.80;;;;;;;12.46;94.86;100268.25;2070130;28;34258;-69
2022/11/09 04:28:59;;;;;;;4.82;0.80;;;;;;;12.44;94.73;100275.50;2062962;28;33376;-69
2022/11/09 04:30:01;;;;;;;3.80;0.65;;;;;;;12.47;94.46;100264.66;2063209;28;22567;-69
2022/11/09 04:31:03;;;;;;;4.30;1.00;;;;;;;12.47;95.26;100270.03;2063115;28;34771;-69
2022/11/09 04:32:04;;;;;;;6.43;0.80;;;;;;;12.43;94.95;100267.53;2063385;28;20047;-69
2022/11/09 04:33:06;;;;;;;4.07;0.65;;;;;;;12.46;94.94;100259.34;2063127;28;32940;-69
2022/11/09 04:34:08;;;;;;;2.80;0.77;;;;;;;12.46;94.95;100262.91;2062073;28;20051;-69
2022/11/09 04:35:09;;;;;;;4.63;0.90;;;;;;;12.41;95.29;100256.84;2062765;28;20035;-68
2022/11/09 04:36:11;;;;;;;5.05;0.90;;;;;;;12.41;94.93;100256.84;2062879;28;28016;-68
2022/11/09 04:37:15;;;;;;;3.15;0.73;;;;;;;12.37;95.16;100241.81;2063953;28;20108;-68
2022/11/09 04:38:17;;;;;;;3.83;0.80;;;;;;;12.38;95.82;100248.91;2070089;28;34942;-68
2022/11/09 04:39:19;;;;;;;6.80;0.82;;;;;;;12.34;95.79;100253.53;2070537;28;34203;-68
2022/11/09 04:40:23;;;;;;;3.40;0.82;;;;;;;12.29;95.14;100252.88;2063006;28;25338;-68
2022/11/09 04:41:27;;;;;;;6.47;1.00;;;;;;;12.30;96.03;100259.09;2070199;28;22605;-68
2022/11/09 04:42:28;;;;;;;5.60;0.82;;;;;;;12.32;96.51;100271.50;2069303;28;36326;-69
2022/11/09 04:43:30;;;;;;;3.97;0.70;;;;;;;12.35;95.83;100282.13;2063493;28;20047;-69
2022/11/09 04:44:32;;;;;;;6.20;1.13;;;;;;;12.36;95.40;100283.00;2070290;28;33313;-68
2022/11/09 04:45:36;;;;;;;3.00;0.82;;;;;;;12.32;96.16;100281.38;2070879;28;20038;-68
2022/11/09 04:46:38;;;;;;;6.72;1.05;;;;;;;12.32;96.35;100286.75;2069906;28;36842;-68
2022/11/09 04:47:39;;;;;;;3.22;0.90;;;;;;;12.36;96.55;100291.06;2070149;28;40413;-68
2022/11/09 04:48:42;;;;;;;4.97;1.10;;;;;;;12.36;96.55;100280.31;2063378;28;20939;-68
2022/11/09 04:49:44;;;;;;;3.40;0.88;;;;;;;12.40;96.23;100276.59;2062427;28;32669;-67
2022/11/09 04:50:46;;;;;;;4.95;0.90;;;;;;;12.44;95.36;100275.50;2062798;28;36990;-68
2022/11/09 04:51:50;;;;;;;4.57;1.30;;;;;;;12.44;95.29;100272.84;2064681;28;20067;-68
2022/11/09 04:52:54;;;;;;;3.45;0.70;;;;;;;12.48;95.62;100277.13;2064333;28;34843;-68
2022/11/09 04:53:55;;;;;;;6.45;1.05;;;;;;;12.50;95.26;100269.88;2064100;28;35318;-68
2022/11/09 04:54:57;;;;;;;3.95;0.82;;;;;;;12.53;95.15;100268.88;2064399;28;31219;-68
2022/11/09 04:55:59;;;;;;;5.00;1.00;;;;;;;12.53;95.22;100261.69;2064124;28;33641;-68
2022/11/09 04:57:01;;;;;;;3.85;0.70;;;;;;;12.52;94.75;100265.31;2064240;28;27931;-69